createdAt,value
2023-02-11T00:01:36.260Z,26.83
2023-02-11T00:04:06.169Z,27.02
2023-02-11T00:06:35.132Z,28.60
2023-02-11T00:09:03.430Z,32.28
2023-02-11T00:11:30.805Z,27.98
2023-02-11T00:14:02.165Z,28.55
2023-02-11T00:16:29.846Z,29.10
2023-02-11T00:18:57.121Z,28.13
2023-02-11T00:21:26.219Z,28.52
2023-02-11T00:23:54.850Z,28.48
2023-02-11T00:26:25.993Z,27.98
2023-02-11T00:28:53.624Z,28.30
2023-02-11T00:31:23.083Z,29.45
2023-02-11T00:33:50.744Z,28.60
2023-02-11T00:36:29.303Z,26.02
2023-02-11T00:38:58.520Z,28.77
2023-02-11T00:41:26.113Z,28.10
2023-02-11T00:43:53.290Z,28.48
2023-02-11T00:46:21.509Z,28.38
2023-02-11T00:48:49.070Z,29.05
2023-02-11T00:51:16.119Z,28.20
2023-02-11T00:53:43.501Z,28.27
2023-02-11T00:56:10.667Z,28.17
2023-02-11T00:58:37.877Z,29.67
2023-02-11T01:01:05.696Z,27.35
2023-02-11T01:03:32.579Z,27.88
2023-02-11T01:05:59.472Z,29.10
2023-02-11T01:08:26.844Z,29.85
2023-02-11T01:11:03.638Z,28.23
2023-02-11T01:13:33.075Z,30.10
2023-02-11T01:16:00.561Z,28.25
2023-02-11T01:18:27.739Z,30.63
2023-02-11T01:20:54.954Z,32.40
2023-02-11T01:23:22.245Z,29.88
2023-02-11T01:25:49.610Z,32.95
2023-02-11T01:28:27.592Z,30.17
2023-02-11T01:30:55.542Z,31.30
2023-02-11T01:33:23.628Z,29.63
2023-02-11T01:35:51.436Z,29.98
2023-02-11T01:38:25.826Z,31.25
2023-02-11T01:41:00.221Z,30.63
2023-02-11T01:43:31.257Z,29.58
2023-02-11T01:46:38.186Z,30.65
2023-02-11T01:49:12.697Z,28.02
2023-02-11T01:51:50.314Z,28.05
2023-02-11T01:54:41.096Z,29.27
2023-02-11T01:57:23.071Z,29.50
2023-02-11T02:00:02.722Z,30.60
2023-02-11T02:02:52.385Z,29.38
2023-02-11T02:05:31.132Z,29.08
2023-02-11T02:08:11.007Z,29.08
2023-02-11T02:10:43.059Z,30.13
2023-02-11T02:13:10.861Z,29.93
2023-02-11T02:15:41.607Z,28.42
2023-02-11T02:18:19.609Z,29.38
2023-02-11T02:21:02.875Z,28.70
2023-02-11T02:23:39.082Z,29.50
2023-02-11T02:26:22.261Z,28.42
2023-02-11T02:32:10.900Z,28.67
2023-02-11T02:34:49.520Z,27.38
2023-02-11T02:37:27.881Z,29.13
2023-02-11T02:39:59.634Z,27.52
2023-02-11T02:42:27.173Z,27.98
2023-02-11T02:44:56.084Z,29.33
2023-02-11T02:47:22.907Z,29.60
2023-02-11T02:49:50.671Z,29.05
2023-02-11T02:52:44.061Z,28.05
2023-02-11T02:58:23.660Z,26.60
2023-02-11T03:01:18.107Z,28.10
2023-02-11T03:04:06.121Z,27.58
2023-02-11T03:06:35.963Z,27.52
2023-02-11T03:09:39.915Z,26.67
2023-02-11T03:12:09.279Z,27.15
2023-02-11T03:14:37.675Z,26.83
2023-02-11T03:17:08.371Z,26.70
2023-02-11T03:19:45.629Z,26.25
2023-02-11T03:22:22.839Z,29.67
2023-02-11T03:24:49.959Z,26.58
2023-02-11T03:27:35.094Z,26.92
2023-02-11T03:30:11.054Z,27.83
2023-02-11T03:32:52.505Z,26.25
2023-02-11T03:35:32.734Z,27.13
2023-02-11T03:38:17.593Z,28.05
2023-02-11T03:40:45.667Z,25.80
2023-02-11T03:43:26.969Z,27.42
2023-02-11T03:45:56.296Z,26.33
2023-02-11T03:48:31.411Z,26.83
2023-02-11T03:51:02.924Z,26.85
2023-02-11T03:53:29.884Z,26.38
2023-02-11T03:56:02.499Z,27.55
2023-02-11T03:58:29.362Z,25.88
2023-02-11T04:00:56.400Z,25.77
2023-02-11T04:03:23.244Z,27.88
2023-02-11T04:05:50.357Z,25.52
2023-02-11T04:08:17.324Z,26.92
2023-02-11T04:10:44.116Z,26.98
2023-02-11T04:13:11.041Z,26.00
2023-02-11T04:15:38.175Z,27.45
2023-02-11T04:18:05.040Z,28.13
2023-02-11T04:20:31.882Z,25.75
2023-02-11T04:22:58.721Z,27.02
2023-02-11T04:25:26.242Z,25.85
2023-02-11T04:27:53.081Z,27.02
2023-02-11T04:30:20.100Z,26.02
2023-02-11T04:32:46.962Z,27.80
2023-02-11T04:35:14.336Z,26.80
2023-02-11T04:37:41.204Z,26.25
2023-02-11T04:40:08.989Z,27.30
2023-02-11T04:42:35.812Z,27.45
2023-02-11T04:45:02.928Z,28.65
2023-02-11T04:47:29.855Z,27.95
2023-02-11T04:49:56.714Z,29.42
2023-02-11T04:52:23.516Z,26.35
2023-02-11T04:54:50.428Z,27.10
2023-02-11T04:57:17.379Z,28.20
2023-02-11T04:59:44.501Z,28.45
2023-02-11T05:02:11.322Z,29.60
2023-02-11T05:04:38.187Z,27.38
2023-02-11T05:07:05.014Z,30.52
2023-02-11T05:09:31.833Z,29.98
2023-02-11T05:11:58.733Z,29.25
2023-02-11T05:14:25.613Z,28.42
2023-02-11T05:16:52.594Z,28.83
2023-02-11T05:19:19.438Z,29.38
2023-02-11T05:22:01.338Z,27.25
2023-02-11T05:24:31.017Z,29.13
2023-02-11T05:26:57.875Z,28.27
2023-02-11T05:29:24.731Z,30.30
2023-02-11T05:31:51.584Z,29.42
2023-02-11T05:34:18.539Z,28.15
2023-02-11T05:36:45.421Z,29.73
2023-02-11T05:39:12.415Z,30.70
2023-02-11T05:41:39.303Z,31.42
2023-02-11T05:44:06.233Z,31.00
2023-02-11T05:46:33.209Z,29.88
2023-02-11T05:49:00.499Z,31.25
2023-02-11T05:51:27.628Z,31.10
2023-02-11T05:53:54.836Z,30.63
2023-02-11T05:56:21.642Z,31.27
2023-02-11T05:58:48.477Z,32.75
2023-02-11T06:01:15.309Z,30.65
2023-02-11T06:03:42.227Z,30.50
2023-02-11T06:06:12.842Z,29.67
2023-02-11T06:08:40.182Z,29.90
2023-02-11T06:11:07.280Z,29.65
2023-02-11T06:13:34.515Z,30.13
2023-02-11T06:16:03.624Z,30.17
2023-02-11T06:18:30.705Z,29.15
2023-02-11T06:20:57.532Z,29.70
2023-02-11T06:23:24.446Z,29.25
2023-02-11T06:25:52.642Z,29.02
2023-02-11T06:28:19.933Z,30.00
2023-02-11T06:30:46.844Z,29.00
2023-02-11T06:33:13.717Z,27.52
2023-02-11T06:35:40.563Z,28.05
2023-02-11T06:38:07.473Z,29.65
2023-02-11T06:40:34.383Z,28.55
2023-02-11T06:43:01.262Z,27.75
2023-02-11T06:45:28.126Z,27.10
2023-02-11T06:47:54.999Z,28.10
2023-02-11T06:50:22.205Z,28.17
2023-02-11T06:52:49.140Z,28.67
2023-02-11T06:55:15.958Z,26.90
2023-02-11T06:57:42.882Z,26.35
2023-02-11T07:00:10.693Z,28.08
2023-02-11T07:02:37.615Z,26.77
2023-02-11T07:05:07.208Z,27.95
2023-02-11T07:07:34.556Z,26.10
2023-02-11T07:10:03.167Z,29.02
2023-02-11T07:12:31.041Z,28.58
2023-02-11T07:14:58.357Z,27.92
2023-02-11T07:17:25.322Z,31.40
2023-02-11T07:19:52.164Z,29.42
2023-02-11T07:22:19.092Z,28.58
2023-02-11T07:24:45.945Z,28.77
2023-02-11T07:27:13.028Z,26.65
2023-02-11T07:29:42.269Z,28.38
2023-02-11T07:32:09.163Z,26.83
2023-02-11T07:34:36.104Z,30.40
2023-02-11T07:37:03.180Z,27.10
2023-02-11T07:39:30.073Z,26.55
2023-02-11T07:41:57.147Z,23.38
2023-02-11T07:44:24.134Z,25.55
2023-02-11T07:46:51.076Z,24.80
2023-02-11T07:49:17.895Z,24.98
2023-02-11T07:51:45.852Z,25.08
2023-02-11T07:54:12.701Z,24.08
2023-02-11T07:56:39.566Z,23.70
2023-02-11T07:59:06.485Z,24.65
2023-02-11T08:01:36.079Z,23.95
2023-02-11T08:04:04.158Z,23.58
2023-02-11T08:06:33.890Z,23.25
2023-02-11T08:09:07.614Z,23.17
2023-02-11T08:11:34.670Z,22.70
2023-02-11T08:14:01.772Z,20.55
2023-02-11T08:16:33.014Z,22.05
2023-02-11T08:19:04.404Z,22.10
2023-02-11T08:21:31.399Z,20.23
2023-02-11T08:23:58.547Z,18.45
2023-02-11T08:26:41.010Z,19.88
2023-02-11T08:29:11.581Z,19.75
2023-02-11T08:31:42.744Z,20.65
2023-02-11T08:34:11.600Z,18.88
2023-02-11T08:36:40.045Z,18.23
2023-02-11T08:39:20.064Z,17.83
2023-02-11T08:41:51.867Z,17.40
2023-02-11T08:44:20.983Z,17.92
2023-02-11T09:00:08.770Z,18.42
2023-02-11T09:02:35.927Z,17.58
2023-02-11T09:05:03.266Z,16.33
2023-02-11T09:07:30.261Z,15.93
2023-02-11T09:09:57.233Z,15.82
2023-02-11T09:12:24.282Z,16.23
2023-02-11T09:14:51.416Z,15.85
2023-02-11T09:17:18.428Z,15.68
2023-02-11T09:19:45.479Z,16.95
2023-02-11T09:22:12.425Z,16.55
2023-02-11T09:24:39.419Z,17.00
2023-02-11T09:27:06.960Z,18.15
2023-02-11T09:29:33.977Z,19.33
2023-02-11T09:32:01.187Z,21.77
2023-02-11T09:34:28.317Z,23.00
2023-02-11T09:36:55.319Z,20.25
2023-02-11T09:39:22.455Z,20.55
2023-02-11T09:42:39.868Z,16.70
2023-02-11T09:45:26.459Z,16.42
2023-02-11T09:48:07.618Z,15.65
2023-02-11T09:50:39.874Z,16.00
2023-02-11T09:53:25.449Z,15.13
2023-02-11T09:56:15.910Z,14.30
2023-02-11T09:58:45.352Z,16.20
2023-02-11T10:01:42.109Z,15.90
2023-02-11T10:04:59.074Z,15.80
2023-02-11T10:07:51.704Z,15.13
2023-02-11T10:10:27.682Z,14.77
2023-02-11T10:13:09.576Z,14.10
2023-02-11T10:16:10.357Z,13.55
2023-02-11T10:18:54.663Z,13.23
2023-02-11T10:21:47.095Z,12.60
2023-02-11T10:24:17.624Z,13.27
2023-02-11T10:26:46.178Z,12.73
2023-02-11T10:29:38.654Z,12.45
2023-02-11T10:32:31.309Z,13.93
2023-02-11T10:35:10.305Z,12.70
2023-02-11T10:37:37.479Z,12.40
2023-02-11T10:40:13.030Z,14.18
2023-02-11T10:42:46.941Z,15.77
2023-02-11T10:45:37.844Z,14.45
2023-02-11T10:48:26.522Z,14.40
2023-02-11T10:51:17.652Z,14.93
2023-02-11T10:54:13.913Z,13.43
2023-02-11T10:57:00.177Z,11.25
2023-02-11T10:59:40.353Z,11.23
2023-02-11T11:02:32.026Z,10.48
2023-02-11T11:05:20.870Z,10.52
2023-02-11T11:07:59.827Z,10.15
2023-02-11T11:10:44.586Z,9.18
2023-02-11T11:13:26.394Z,9.10
2023-02-11T11:16:34.013Z,9.43
2023-02-11T11:19:06.946Z,8.77
2023-02-11T11:24:34.474Z,7.50
2023-02-11T11:27:05.230Z,9.00
2023-02-11T11:29:38.024Z,8.90
2023-02-11T11:32:33.692Z,7.47
2023-02-11T11:35:05.980Z,6.97
2023-02-11T11:37:37.026Z,6.85
2023-02-11T11:40:24.725Z,7.38
2023-02-11T11:43:14.682Z,6.88
2023-02-11T11:46:00.060Z,8.35
2023-02-11T11:48:40.305Z,8.35
2023-02-11T11:51:11.810Z,8.15
2023-02-11T11:54:00.338Z,8.60
2023-02-11T11:56:33.790Z,7.57
2023-02-11T11:59:13.106Z,8.00
2023-02-11T12:01:59.788Z,7.65
2023-02-11T12:04:45.581Z,8.63
2023-02-11T12:07:33.114Z,8.10
2023-02-11T12:10:15.097Z,9.43
2023-02-11T12:13:12.455Z,8.50
2023-02-11T12:15:52.039Z,7.38
2023-02-11T12:18:50.197Z,7.57
2023-02-11T12:21:41.648Z,7.47
2023-02-11T12:24:48.153Z,7.15
2023-02-11T12:27:42.511Z,6.93
2023-02-11T12:30:59.465Z,6.90
2023-02-11T12:34:00.038Z,6.50
2023-02-11T12:36:54.465Z,6.35
2023-02-11T12:39:36.800Z,6.55
2023-02-11T12:42:38.703Z,6.47
2023-02-11T12:45:12.175Z,6.10
2023-02-11T12:48:05.367Z,6.43
2023-02-11T12:51:09.208Z,6.60
2023-02-11T12:54:16.024Z,6.57
2023-02-11T12:57:12.728Z,5.88
2023-02-11T13:00:07.008Z,6.65
2023-02-11T13:03:14.139Z,6.22
2023-02-11T13:05:52.954Z,6.68
2023-02-11T13:08:28.790Z,6.40
2023-02-11T13:11:06.074Z,6.72
2023-02-11T13:13:57.671Z,5.88
2023-02-11T13:16:46.288Z,6.88
2023-02-11T13:19:13.380Z,7.32
2023-02-11T13:22:02.592Z,8.35
2023-02-11T13:25:18.969Z,7.45
2023-02-11T13:28:18.583Z,7.47
2023-02-11T13:30:47.418Z,8.60
2023-02-11T13:33:20.793Z,8.95
2023-02-11T13:35:56.790Z,8.18
2023-02-11T13:38:30.340Z,7.90
2023-02-11T13:41:37.551Z,8.10
2023-02-11T13:44:09.184Z,8.70
2023-02-11T13:47:02.150Z,7.25
2023-02-11T13:49:49.380Z,8.02
2023-02-11T13:52:34.115Z,7.28
2023-02-11T13:55:24.044Z,8.73
2023-02-11T13:58:14.323Z,8.10
2023-02-11T14:00:51.065Z,9.40
2023-02-11T14:03:53.166Z,9.00
2023-02-11T14:07:06.897Z,8.68
2023-02-11T14:09:39.134Z,9.38
2023-02-11T14:12:34.463Z,8.87
2023-02-11T14:15:23.163Z,14.18
2023-02-11T14:17:53.593Z,10.68
2023-02-11T14:20:40.557Z,72.13
2023-02-11T14:23:22.016Z,137.88
2023-02-11T14:26:07.236Z,67.53
2023-02-11T14:28:36.438Z,52.72
2023-02-11T14:31:14.959Z,55.22
2023-02-11T14:34:14.773Z,37.65
2023-02-11T14:37:23.120Z,24.70
2023-02-11T14:40:10.039Z,34.95
2023-02-11T14:42:38.918Z,17.92
2023-02-11T14:45:12.195Z,28.15
2023-02-11T14:48:08.531Z,38.80
2023-02-11T14:50:54.905Z,19.73
2023-02-11T14:53:26.370Z,19.90
2023-02-11T14:55:55.972Z,15.90
2023-02-11T14:58:30.207Z,19.67
2023-02-11T15:00:59.094Z,17.63
2023-02-11T15:03:27.676Z,20.33
2023-02-11T15:06:08.230Z,16.92
2023-02-11T15:08:38.734Z,12.55
2023-02-11T15:11:13.998Z,12.20
2023-02-11T15:13:47.659Z,12.07
2023-02-11T15:16:19.820Z,12.40
2023-02-11T15:19:07.833Z,13.60
2023-02-11T15:21:37.021Z,13.15
2023-02-11T15:24:21.256Z,12.88
2023-02-11T15:27:26.939Z,13.48
2023-02-11T15:29:55.739Z,17.58
2023-02-11T15:32:26.727Z,16.73
2023-02-11T15:34:57.082Z,16.08
2023-02-11T15:37:29.692Z,14.82
2023-02-11T15:40:25.207Z,14.40
2023-02-11T15:43:02.805Z,12.75
2023-02-11T15:46:07.902Z,12.98
2023-02-11T15:48:53.413Z,15.23
2023-02-11T15:51:29.561Z,16.92
2023-02-11T15:54:00.965Z,20.85
2023-02-11T15:56:44.377Z,17.08
2023-02-11T15:59:30.872Z,16.50
2023-02-11T16:02:20.444Z,14.68
2023-02-11T16:05:09.725Z,15.50
2023-02-11T16:07:46.285Z,15.07
2023-02-11T16:10:25.199Z,17.15
2023-02-11T16:13:00.511Z,18.45
2023-02-11T16:15:34.176Z,16.77
2023-02-11T16:18:19.456Z,20.35
2023-02-11T16:20:50.969Z,23.00
2023-02-11T16:23:26.214Z,23.42
2023-02-11T16:26:07.186Z,19.15
2023-02-11T16:28:36.858Z,16.90
2023-02-11T16:31:05.799Z,14.70
2023-02-11T16:33:33.351Z,15.25
2023-02-11T16:36:02.363Z,16.60
2023-02-11T16:38:32.736Z,23.40
2023-02-11T16:40:59.909Z,41.88
2023-02-11T16:43:27.173Z,31.67
2023-02-11T16:45:54.470Z,21.60
2023-02-11T16:48:21.897Z,23.45
2023-02-11T16:50:53.325Z,28.83
2023-02-11T16:53:25.299Z,48.88
2023-02-11T16:55:53.554Z,52.60
2023-02-11T16:58:20.904Z,32.95
2023-02-11T17:00:49.135Z,34.03
2023-02-11T17:03:29.592Z,42.05
2023-02-11T17:05:57.335Z,29.77
2023-02-11T17:08:24.689Z,38.60
2023-02-11T17:10:52.062Z,17.73
2023-02-11T17:13:19.587Z,27.23
2023-02-11T17:15:46.785Z,36.67
2023-02-11T17:18:14.760Z,26.45
2023-02-11T17:20:43.102Z,22.35
2023-02-11T17:23:10.558Z,16.77
2023-02-11T17:25:38.548Z,16.13
2023-02-11T17:28:08.230Z,18.73
2023-02-11T17:30:35.722Z,18.88
2023-02-11T17:33:03.286Z,21.35
2023-02-11T17:35:30.306Z,16.90
2023-02-11T17:37:58.926Z,10.02
2023-02-11T17:40:26.601Z,14.63
2023-02-11T17:42:53.858Z,15.90
2023-02-11T17:45:22.348Z,11.73
2023-02-11T17:47:49.996Z,17.67
2023-02-11T17:50:17.552Z,12.00
2023-02-11T17:52:45.194Z,10.63
2023-02-11T17:55:12.777Z,12.23
2023-02-11T17:57:39.990Z,16.40
2023-02-11T18:00:08.819Z,20.52
2023-02-11T18:02:36.069Z,17.02
2023-02-11T18:05:03.170Z,12.38
2023-02-11T18:07:30.590Z,14.43
2023-02-11T18:09:57.839Z,14.05
2023-02-11T18:12:28.077Z,8.85
2023-02-11T18:14:58.016Z,8.55
2023-02-11T18:17:26.689Z,9.35
2023-02-11T18:19:58.073Z,10.23
2023-02-11T18:22:25.942Z,9.75
2023-02-11T18:24:55.329Z,8.60
2023-02-11T18:27:23.065Z,9.05
2023-02-11T18:29:50.669Z,7.75
2023-02-11T18:32:17.721Z,10.75
2023-02-11T18:34:45.119Z,14.70
2023-02-11T18:37:14.374Z,11.55
2023-02-11T18:39:42.335Z,17.05
2023-02-11T18:42:10.854Z,9.82
2023-02-11T18:44:38.120Z,10.60
2023-02-11T18:47:05.172Z,6.68
2023-02-11T18:49:33.102Z,7.13
2023-02-11T18:52:00.363Z,7.97
2023-02-11T18:54:27.503Z,8.65
2023-02-11T18:56:54.882Z,8.93
2023-02-11T18:59:22.138Z,6.80
2023-02-11T19:01:49.914Z,6.15
2023-02-11T19:04:20.304Z,7.13
2023-02-11T19:06:51.903Z,7.50
2023-02-11T19:09:20.991Z,5.38
2023-02-11T19:11:51.435Z,6.00
2023-02-11T19:14:23.992Z,6.00
2023-02-11T19:16:55.395Z,6.07
2023-02-11T19:19:25.833Z,4.97
2023-02-11T19:21:53.350Z,5.18
2023-02-11T19:24:21.733Z,4.88
2023-02-11T19:26:50.924Z,5.25
2023-02-11T19:29:18.871Z,5.72
2023-02-11T19:31:46.537Z,5.90
2023-02-11T19:34:17.364Z,6.05
2023-02-11T19:36:44.988Z,5.57
2023-02-11T19:39:13.012Z,4.95
2023-02-11T19:41:40.547Z,4.10
2023-02-11T19:44:09.560Z,4.43
2023-02-11T19:46:41.158Z,4.35
2023-02-11T19:49:10.258Z,4.40
2023-02-11T19:51:39.683Z,4.50
2023-02-11T19:54:07.619Z,5.15
2023-02-11T19:56:34.834Z,5.10
2023-02-11T19:59:03.683Z,4.82
2023-02-11T20:01:30.880Z,5.25
2023-02-11T20:03:58.107Z,5.53
2023-02-11T20:06:30.495Z,5.60
2023-02-11T20:09:00.976Z,5.65
2023-02-11T20:11:33.840Z,5.68
2023-02-11T20:16:47.074Z,4.85
2023-02-11T20:19:21.756Z,4.65
2023-02-11T20:21:53.654Z,4.80
2023-02-11T20:24:21.628Z,4.80
2023-02-11T20:26:49.715Z,4.80
2023-02-11T20:29:18.560Z,4.55
2023-02-11T20:31:46.011Z,5.10
2023-02-11T20:34:13.949Z,5.90
2023-02-11T20:36:41.575Z,6.60
2023-02-11T20:39:11.303Z,6.25
2023-02-11T20:41:40.019Z,6.70
2023-02-11T20:44:10.562Z,5.90
2023-02-11T20:46:42.257Z,6.55
2023-02-11T20:49:15.711Z,6.28
2023-02-11T20:51:43.633Z,6.80
2023-02-11T20:54:18.002Z,6.82
2023-02-11T20:56:48.272Z,6.70
2023-02-11T20:59:16.898Z,6.55
2023-02-11T21:01:48.756Z,7.07
2023-02-11T21:04:19.876Z,7.22
2023-02-11T21:06:50.175Z,7.35
2023-02-11T21:09:20.654Z,7.72
2023-02-11T21:11:49.415Z,8.65
2023-02-11T21:14:19.064Z,7.70
2023-02-11T21:16:47.302Z,7.28
2023-02-11T21:19:14.649Z,8.77
2023-02-11T21:21:42.504Z,8.77
2023-02-11T21:24:10.737Z,6.80
2023-02-11T21:26:39.361Z,8.00
2023-02-11T21:29:08.704Z,6.90
2023-02-11T21:31:36.917Z,7.70
2023-02-11T21:34:05.392Z,7.53
2023-02-11T21:36:32.624Z,6.15
2023-02-11T21:39:01.808Z,7.07
2023-02-11T21:41:29.122Z,6.82
2023-02-11T21:43:56.649Z,7.30
2023-02-11T21:46:23.949Z,6.97
2023-02-11T21:48:51.360Z,6.53
2023-02-11T21:51:23.773Z,7.03
2023-02-11T21:54:01.363Z,7.65
2023-02-11T21:56:33.916Z,7.90
2023-02-11T21:59:01.269Z,8.10
2023-02-11T22:01:32.442Z,9.90
2023-02-11T22:04:00.205Z,12.02
2023-02-11T22:06:33.168Z,12.77
2023-02-11T22:09:06.203Z,13.52
2023-02-11T22:11:33.803Z,10.65
2023-02-11T22:14:01.041Z,10.18
2023-02-11T22:16:29.492Z,11.70
2023-02-11T22:18:58.600Z,13.02
2023-02-11T22:21:26.413Z,11.75
2023-02-11T22:23:56.128Z,12.32
2023-02-11T22:26:26.560Z,16.52
2023-02-11T22:28:55.036Z,15.75
2023-02-11T22:31:27.724Z,14.98
2023-02-11T22:33:56.197Z,14.40
2023-02-11T22:36:30.928Z,12.52
2023-02-11T22:39:03.609Z,12.35
2023-02-11T22:41:31.680Z,13.30
2023-02-11T22:43:58.955Z,13.57
2023-02-11T22:46:26.780Z,13.40
2023-02-11T22:48:54.359Z,11.05
2023-02-11T22:51:25.815Z,10.20
2023-02-11T22:53:55.814Z,10.90
2023-02-11T22:56:24.207Z,11.05
2023-02-11T22:58:53.292Z,10.77
2023-02-11T23:01:20.821Z,9.55
2023-02-11T23:03:48.208Z,9.38
2023-02-11T23:06:15.895Z,7.97
2023-02-11T23:08:43.925Z,11.40
2023-02-11T23:11:20.512Z,10.20
2023-02-11T23:13:51.072Z,9.07
2023-02-11T23:16:23.899Z,9.05
2023-02-11T23:18:52.489Z,9.25
2023-02-11T23:21:32.445Z,9.15
2023-02-11T23:24:15.105Z,11.18
2023-02-11T23:26:44.062Z,9.95
2023-02-11T23:29:12.065Z,9.02
2023-02-11T23:31:43.985Z,8.05
2023-02-11T23:34:12.112Z,8.40
2023-02-11T23:36:39.223Z,7.20
2023-02-11T23:39:07.424Z,8.40
2023-02-11T23:41:34.983Z,8.25
2023-02-11T23:44:02.219Z,8.40
2023-02-11T23:46:29.490Z,6.88
2023-02-11T23:48:56.642Z,6.07
2023-02-11T23:51:24.561Z,5.97
2023-02-11T23:53:56.044Z,5.05
2023-02-11T23:56:27.293Z,5.15
2023-02-11T23:58:57.747Z,4.60
